sensor_id;sensor_type;location;lat;lon;timestamp;pressure;altitude;pressure_sealevel;temperature;humidity
39265;BME280;42646;51.910;7.724;2023-03-12T00:00:13;100644.69;;;-0.58;100.00
39265;BME280;42646;51.910;7.724;2023-03-12T00:02:41;100643.78;;;-0.57;100.00
39265;BME280;42646;51.910;7.724;2023-03-12T00:05:09;100638.56;;;-0.57;100.00
39265;BME280;42646;51.910;7.724;2023-03-12T00:07:37;100634.16;;;-0.56;100.00
39265;BME280;42646;51.910;7.724;2023-03-12T00:10:06;100644.50;;;-0.53;100.00
39265;BME280;42646;51.910;7.724;2023-03-12T00:12:34;100638.47;;;-0.55;100.00
39265;BME280;42646;51.910;7.724;2023-03-12T00:15:02;100635.75;;;-0.52;100.00
39265;BME280;42646;51.910;7.724;2023-03-12T00:17:32;100635.78;;;-0.54;100.00
39265;BME280;42646;51.910;7.724;2023-03-12T00:20:00;100629.72;;;-0.54;100.00
39265;BME280;42646;51.910;7.724;2023-03-12T00:22:28;100635.88;;;-0.55;100.00
39265;BME280;42646;51.910;7.724;2023-03-12T00:24:56;100628.03;;;-0.55;100.00
39265;BME280;42646;51.910;7.724;2023-03-12T00:27:26;100634.63;;;-0.46;100.00
39265;BME280;42646;51.910;7.724;2023-03-12T00:29:54;100628.66;;;-0.50;100.00
39265;BME280;42646;51.910;7.724;2023-03-12T00:32:22;100623.53;;;-0.51;100.00
39265;BME280;42646;51.910;7.724;2023-03-12T00:34:53;100627.81;;;-0.50;100.00
39265;BME280;42646;51.910;7.724;2023-03-12T00:37:21;100625.97;;;-0.48;100.00
39265;BME280;42646;51.910;7.724;2023-03-12T00:39:49;100620.72;;;-0.47;100.00
39265;BME280;42646;51.910;7.724;2023-03-12T00:42:17;100616.25;;;-0.45;100.00
39265;BME280;42646;51.910;7.724;2023-03-12T00:44:46;100607.50;;;-0.44;100.00
39265;BME280;42646;51.910;7.724;2023-03-12T00:47:13;100602.97;;;-0.40;100.00
39265;BME280;42646;51.910;7.724;2023-03-12T00:49:41;100599.44;;;-0.39;100.00
39265;BME280;42646;51.910;7.724;2023-03-12T00:52:10;100600.13;;;-0.36;100.00
39265;BME280;42646;51.910;7.724;2023-03-12T00:54:38;100594.00;;;-0.35;100.00
39265;BME280;42646;51.910;7.724;2023-03-12T00:57:07;100588.78;;;-0.35;100.00
39265;BME280;42646;51.910;7.724;2023-03-12T00:59:35;100582.63;;;-0.34;100.00
39265;BME280;42646;51.910;7.724;2023-03-12T01:02:06;100575.56;;;-0.32;100.00
39265;BME280;42646;51.910;7.724;2023-03-12T01:04:34;100578.06;;;-0.29;100.00
39265;BME280;42646;51.910;7.724;2023-03-12T01:07:04;100577.25;;;-0.31;100.00
39265;BME280;42646;51.910;7.724;2023-03-12T01:09:32;100584.31;;;-0.33;100.00
39265;BME280;42646;51.910;7.724;2023-03-12T01:12:00;100585.94;;;-0.30;100.00
39265;BME280;42646;51.910;7.724;2023-03-12T01:14:28;100588.72;;;-0.33;100.00
39265;BME280;42646;51.910;7.724;2023-03-12T01:16:57;100593.09;;;-0.34;100.00
39265;BME280;42646;51.910;7.724;2023-03-12T01:19:24;100583.47;;;-0.33;100.00
39265;BME280;42646;51.910;7.724;2023-03-12T01:21:52;100580.03;;;-0.34;100.00
39265;BME280;42646;51.910;7.724;2023-03-12T01:24:19;100574.88;;;-0.35;100.00
39265;BME280;42646;51.910;7.724;2023-03-12T01:26:49;100578.38;;;-0.36;100.00
39265;BME280;42646;51.910;7.724;2023-03-12T01:29:17;100576.63;;;-0.36;100.00
39265;BME280;42646;51.910;7.724;2023-03-12T01:31:45;100578.25;;;-0.33;100.00
39265;BME280;42646;51.910;7.724;2023-03-12T01:34:12;100566.97;;;-0.34;100.00
39265;BME280;42646;51.910;7.724;2023-03-12T01:36:41;100570.41;;;-0.33;100.00
39265;BME280;42646;51.910;7.724;2023-03-12T01:39:10;100568.56;;;-0.31;100.00
39265;BME280;42646;51.910;7.724;2023-03-12T01:41:38;100567.63;;;-0.30;100.00
39265;BME280;42646;51.910;7.724;2023-03-12T01:44:12;100566.78;;;-0.31;100.00
39265;BME280;42646;51.910;7.724;2023-03-12T01:46:42;100562.41;;;-0.30;100.00
39265;BME280;42646;51.910;7.724;2023-03-12T01:49:24;100560.69;;;-0.30;100.00
39265;BME280;42646;51.910;7.724;2023-03-12T01:51:56;100566.75;;;-0.29;100.00
39265;BME280;42646;51.910;7.724;2023-03-12T01:54:34;100571.91;;;-0.28;100.00
39265;BME280;42646;51.910;7.724;2023-03-12T01:57:07;100557.06;;;-0.27;100.00
39265;BME280;42646;51.910;7.724;2023-03-12T01:59:41;100566.50;;;-0.24;100.00
39265;BME280;42646;51.910;7.724;2023-03-12T02:02:14;100556.06;;;-0.24;100.00
39265;BME280;42646;51.910;7.724;2023-03-12T02:04:45;100556.91;;;-0.24;100.00
39265;BME280;42646;51.910;7.724;2023-03-12T02:07:15;100551.66;;;-0.24;100.00
39265;BME280;42646;51.910;7.724;2023-03-12T02:09:46;100554.22;;;-0.22;100.00
39265;BME280;42646;51.910;7.724;2023-03-12T02:12:15;100543.78;;;-0.22;100.00
39265;BME280;42646;51.910;7.724;2023-03-12T02:14:44;100541.16;;;-0.22;100.00
39265;BME280;42646;51.910;7.724;2023-03-12T02:17:12;100535.09;;;-0.23;100.00
39265;BME280;42646;51.910;7.724;2023-03-12T02:19:46;100530.63;;;-0.21;100.00
39265;BME280;42646;51.910;7.724;2023-03-12T02:22:16;100529.78;;;-0.21;100.00
39265;BME280;42646;51.910;7.724;2023-03-12T02:24:47;100522.91;;;-0.24;100.00
39265;BME280;42646;51.910;7.724;2023-03-12T02:31:36;100523.84;;;-0.25;100.00
39265;BME280;42646;51.910;7.724;2023-03-12T02:34:06;100528.22;;;-0.25;100.00
39265;BME280;42646;51.910;7.724;2023-03-12T02:36:35;100529.88;;;-0.23;100.00
39265;BME280;42646;51.910;7.724;2023-03-12T02:39:04;100530.72;;;-0.22;100.00
39265;BME280;42646;51.910;7.724;2023-03-12T02:41:35;100527.16;;;-0.21;100.00
39265;BME280;42646;51.910;7.724;2023-03-12T02:44:07;100527.09;;;-0.20;100.00
39265;BME280;42646;51.910;7.724;2023-03-12T02:46:41;100523.53;;;-0.19;100.00
39265;BME280;42646;51.910;7.724;2023-03-12T02:49:11;100527.94;;;-0.19;100.00
39265;BME280;42646;51.910;7.724;2023-03-12T02:52:04;100519.78;;;-0.13;100.00
39265;BME280;42646;51.910;7.724;2023-03-12T02:54:35;100513.59;;;-0.11;100.00
39265;BME280;42646;51.910;7.724;2023-03-12T02:57:03;100514.66;;;-0.15;100.00
39265;BME280;42646;51.910;7.724;2023-03-12T02:59:32;100515.56;;;-0.16;100.00
39265;BME280;42646;51.910;7.724;2023-03-12T03:02:05;100501.66;;;-0.16;100.00
39265;BME280;42646;51.910;7.724;2023-03-12T03:04:36;100504.19;;;-0.15;100.00
39265;BME280;42646;51.910;7.724;2023-03-12T03:07:04;100504.91;;;-0.11;100.00
39265;BME280;42646;51.910;7.724;2023-03-12T03:09:32;100504.91;;;-0.11;100.00
39265;BME280;42646;51.910;7.724;2023-03-12T03:12:00;100499.38;;;-0.05;100.00
39265;BME280;42646;51.910;7.724;2023-03-12T03:14:31;100494.16;;;-0.05;100.00
39265;BME280;42646;51.910;7.724;2023-03-12T03:17:00;100497.53;;;-0.03;100.00
39265;BME280;42646;51.910;7.724;2023-03-12T03:19:29;100491.38;;;-0.02;100.00
39265;BME280;42646;51.910;7.724;2023-03-12T03:21:57;100487.91;;;-0.03;100.00
39265;BME280;42646;51.910;7.724;2023-03-12T03:24:25;100491.38;;;-0.02;100.00
39265;BME280;42646;51.910;7.724;2023-03-12T03:26:53;100490.31;;;0.02;100.00
39265;BME280;42646;51.910;7.724;2023-03-12T03:29:24;100483.31;;;0.03;100.00
39265;BME280;42646;51.910;7.724;2023-03-12T03:31:52;100481.69;;;0.00;100.00
39265;BME280;42646;51.910;7.724;2023-03-12T03:34:20;100480.59;;;0.04;100.00
39265;BME280;42646;51.910;7.724;2023-03-12T03:36:51;100477.84;;;0.07;100.00
39265;BME280;42646;51.910;7.724;2023-03-12T03:39:22;100477.84;;;0.07;100.00
39265;BME280;42646;51.910;7.724;2023-03-12T03:41:53;100471.91;;;0.04;100.00
39265;BME280;42646;51.910;7.724;2023-03-12T03:44:23;100470.22;;;0.03;100.00
39265;BME280;42646;51.910;7.724;2023-03-12T03:46:53;100466.84;;;0.01;100.00
39265;BME280;42646;51.910;7.724;2023-03-12T03:49:21;100467.75;;;-0.01;100.00
39265;BME280;42646;51.910;7.724;2023-03-12T03:51:52;100470.31;;;0.01;100.00
39265;BME280;42646;51.910;7.724;2023-03-12T03:54:27;100465.06;;;0.01;100.00
39265;BME280;42646;51.910;7.724;2023-03-12T03:56:57;100460.78;;;0.00;100.00
39265;BME280;42646;51.910;7.724;2023-03-12T03:59:24;100465.00;;;0.03;100.00
39265;BME280;42646;51.910;7.724;2023-03-12T04:02:18;100459.84;;;0.01;100.00
39265;BME280;42646;51.910;7.724;2023-03-12T04:04:48;100458.53;;;0.10;100.00
39265;BME280;42646;51.910;7.724;2023-03-12T04:07:18;100455.06;;;0.09;100.00
39265;BME280;42646;51.910;7.724;2023-03-12T04:09:47;100448.69;;;0.15;100.00
39265;BME280;42646;51.910;7.724;2023-03-12T04:12:16;100443.53;;;0.13;100.00
39265;BME280;42646;51.910;7.724;2023-03-12T04:14:44;100447.00;;;0.14;100.00
39265;BME280;42646;51.910;7.724;2023-03-12T04:17:12;100449.44;;;0.17;100.00
39265;BME280;42646;51.910;7.724;2023-03-12T04:19:43;100451.06;;;0.19;100.00
39265;BME280;42646;51.910;7.724;2023-03-12T04:22:11;100451.84;;;0.21;100.00
39265;BME280;42646;51.910;7.724;2023-03-12T04:24:40;100444.75;;;0.23;100.00
39265;BME280;42646;51.910;7.724;2023-03-12T04:27:08;100442.06;;;0.25;100.00
39265;BME280;42646;51.910;7.724;2023-03-12T04:29:37;100436.00;;;0.24;100.00
39265;BME280;42646;51.910;7.724;2023-03-12T04:32:06;100433.38;;;0.24;100.00
39265;BME280;42646;51.910;7.724;2023-03-12T04:34:35;100432.28;;;0.29;100.00
39265;BME280;42646;51.910;7.724;2023-03-12T04:37:03;100418.03;;;0.34;100.00
39265;BME280;42646;51.910;7.724;2023-03-12T04:39:30;100424.63;;;0.41;100.00
39265;BME280;42646;51.910;7.724;2023-03-12T04:42:00;100417.19;;;0.34;100.00
39265;BME280;42646;51.910;7.724;2023-03-12T04:44:30;100419.81;;;0.34;100.00
39265;BME280;42646;51.910;7.724;2023-03-12T04:47:02;100408.03;;;0.42;100.00
39265;BME280;42646;51.910;7.724;2023-03-12T04:49:30;100407.53;;;0.36;100.00
39265;BME280;42646;51.910;7.724;2023-03-12T04:51:58;100413.41;;;0.39;100.00
39265;BME280;42646;51.910;7.724;2023-03-12T04:54:26;100405.75;;;0.36;100.00
39265;BME280;42646;51.910;7.724;2023-03-12T04:56:59;100397.47;;;0.44;100.00
39265;BME280;42646;51.910;7.724;2023-03-12T04:59:27;100410.66;;;0.42;100.00
39265;BME280;42646;51.910;7.724;2023-03-12T05:01:55;100406.25;;;0.43;100.00
39265;BME280;42646;51.910;7.724;2023-03-12T05:04:26;100397.31;;;0.47;100.00
39265;BME280;42646;51.910;7.724;2023-03-12T05:07:01;100389.22;;;0.51;99.77
39265;BME280;42646;51.910;7.724;2023-03-12T05:09:28;100379.34;;;0.57;99.34
39265;BME280;42646;51.910;7.724;2023-03-12T05:11:59;100381.88;;;0.58;98.69
39265;BME280;42646;51.910;7.724;2023-03-12T05:14:28;100369.13;;;0.52;99.10
39265;BME280;42646;51.910;7.724;2023-03-12T05:16:56;100366.38;;;0.55;99.26
39265;BME280;42646;51.910;7.724;2023-03-12T05:19:23;100372.25;;;0.59;99.18
39265;BME280;42646;51.910;7.724;2023-03-12T05:21:51;100368.81;;;0.58;98.66
39265;BME280;42646;51.910;7.724;2023-03-12T05:24:21;100371.50;;;0.57;98.60
39265;BME280;42646;51.910;7.724;2023-03-12T05:26:49;100360.88;;;0.60;98.31
39265;BME280;42646;51.910;7.724;2023-03-12T05:29:43;100361.88;;;0.57;98.61
39265;BME280;42646;51.910;7.724;2023-03-12T05:32:11;100360.78;;;0.61;98.87
39265;BME280;42646;51.910;7.724;2023-03-12T05:34:39;100352.00;;;0.62;98.75
39265;BME280;42646;51.910;7.724;2023-03-12T05:37:07;100352.00;;;0.62;98.76
39265;BME280;42646;51.910;7.724;2023-03-12T05:39:36;100346.69;;;0.64;99.00
39265;BME280;42646;51.910;7.724;2023-03-12T05:42:04;100341.41;;;0.65;98.79
39265;BME280;42646;51.910;7.724;2023-03-12T05:44:33;100340.72;;;0.77;97.60
39265;BME280;42646;51.910;7.724;2023-03-12T05:47:03;100339.84;;;0.77;96.97
39265;BME280;42646;51.910;7.724;2023-03-12T05:49:31;100340.19;;;0.87;96.14
39265;BME280;42646;51.910;7.724;2023-03-12T05:51:59;100329.91;;;0.84;95.94
39265;BME280;42646;51.910;7.724;2023-03-12T05:54:27;100335.56;;;0.92;95.67
39265;BME280;42646;51.910;7.724;2023-03-12T05:56:55;100319.75;;;0.93;95.04
39265;BME280;42646;51.910;7.724;2023-03-12T05:59:26;100328.88;;;1.02;94.46
39265;BME280;42646;51.910;7.724;2023-03-12T06:01:55;100324.75;;;0.98;94.54
39265;BME280;42646;51.910;7.724;2023-03-12T06:04:25;100322.88;;;1.00;94.52
39265;BME280;42646;51.910;7.724;2023-03-12T06:07:17;100324.75;;;0.98;94.33
39265;BME280;42646;51.910;7.724;2023-03-12T06:09:45;100315.69;;;1.03;94.23
39265;BME280;42646;51.910;7.724;2023-03-12T06:12:13;100320.94;;;1.03;94.20
39265;BME280;42646;51.910;7.724;2023-03-12T06:14:42;100323.56;;;1.03;94.00
39265;BME280;42646;51.910;7.724;2023-03-12T06:17:10;100310.28;;;1.06;94.59
39265;BME280;42646;51.910;7.724;2023-03-12T06:19:39;100307.59;;;1.08;94.38
39265;BME280;42646;51.910;7.724;2023-03-12T06:22:09;100303.19;;;1.09;94.23
39265;BME280;42646;51.910;7.724;2023-03-12T06:24:38;100293.22;;;1.15;93.83
39265;BME280;42646;51.910;7.724;2023-03-12T06:27:07;100298.84;;;1.23;93.55
39265;BME280;42646;51.910;7.724;2023-03-12T06:29:35;100294.78;;;1.33;91.98
39265;BME280;42646;51.910;7.724;2023-03-12T06:32:03;100290.91;;;1.25;92.52
39265;BME280;42646;51.910;7.724;2023-03-12T06:34:36;100289.97;;;1.26;92.70
39265;BME280;42646;51.910;7.724;2023-03-12T06:37:05;100282.69;;;1.31;92.61
39265;BME280;42646;51.910;7.724;2023-03-12T06:39:34;100279.25;;;1.30;92.69
39265;BME280;42646;51.910;7.724;2023-03-12T06:42:04;100277.25;;;1.34;92.96
39265;BME280;42646;51.910;7.724;2023-03-12T06:44:32;100281.22;;;1.41;92.19
39265;BME280;42646;51.910;7.724;2023-03-12T06:47:00;100270.72;;;1.41;92.22
39265;BME280;42646;51.910;7.724;2023-03-12T06:49:28;100272.91;;;1.49;91.67
39265;BME280;42646;51.910;7.724;2023-03-12T06:51:58;100263.72;;;1.42;92.12
39265;BME280;42646;51.910;7.724;2023-03-12T06:54:28;100264.22;;;1.48;92.09
39265;BME280;42646;51.910;7.724;2023-03-12T06:57:21;100264.75;;;1.53;91.89
39265;BME280;42646;51.910;7.724;2023-03-12T06:59:49;100271.78;;;1.53;92.06
39265;BME280;42646;51.910;7.724;2023-03-12T07:02:17;100284.53;;;1.59;91.85
39265;BME280;42646;51.910;7.724;2023-03-12T07:04:45;100296.81;;;1.58;91.77
39265;BME280;42646;51.910;7.724;2023-03-12T07:07:39;100301.09;;;1.59;91.83
39265;BME280;42646;51.910;7.724;2023-03-12T07:10:10;100304.22;;;1.66;91.42
39265;BME280;42646;51.910;7.724;2023-03-12T07:12:41;100288.97;;;1.73;90.60
39265;BME280;42646;51.910;7.724;2023-03-12T07:15:09;100290.19;;;1.81;90.48
39265;BME280;42646;51.910;7.724;2023-03-12T07:17:37;100283.28;;;1.80;90.44
39265;BME280;42646;51.910;7.724;2023-03-12T07:20:08;100285.69;;;1.83;90.62
39265;BME280;42646;51.910;7.724;2023-03-12T07:22:36;100279.03;;;1.78;91.20
39265;BME280;42646;51.910;7.724;2023-03-12T07:25:05;100265.28;;;1.74;91.40
39265;BME280;42646;51.910;7.724;2023-03-12T07:27:34;100262.09;;;1.83;91.05
39265;BME280;42646;51.910;7.724;2023-03-12T07:30:06;100264.34;;;1.90;91.11
39265;BME280;42646;51.910;7.724;2023-03-12T07:32:36;100258.75;;;1.96;90.85
39265;BME280;42646;51.910;7.724;2023-03-12T07:35:04;100256.78;;;1.99;90.12
39265;BME280;42646;51.910;7.724;2023-03-12T07:37:32;100257.97;;;1.94;91.11
39265;BME280;42646;51.910;7.724;2023-03-12T07:40:00;100241.38;;;2.07;90.93
39265;BME280;42646;51.910;7.724;2023-03-12T07:42:32;100252.44;;;2.12;90.15
39265;BME280;42646;51.910;7.724;2023-03-12T07:45:26;100256.69;;;2.15;89.81
39265;BME280;42646;51.910;7.724;2023-03-12T07:47:58;100249.91;;;2.25;88.49
39265;BME280;42646;51.910;7.724;2023-03-12T07:50:26;100247.38;;;2.24;88.59
39265;BME280;42646;51.910;7.724;2023-03-12T07:52:57;100247.66;;;2.19;89.28
39265;BME280;42646;51.910;7.724;2023-03-12T07:55:28;100246.38;;;2.26;89.46
39265;BME280;42646;51.910;7.724;2023-03-12T07:57:56;100242.41;;;2.33;89.79
39265;BME280;42646;51.910;7.724;2023-03-12T08:00:26;100239.19;;;2.57;88.45
39265;BME280;42646;51.910;7.724;2023-03-12T08:02:56;100239.41;;;2.39;88.13
39265;BME280;42646;51.910;7.724;2023-03-12T08:05:26;100231.31;;;2.42;88.55
39265;BME280;42646;51.910;7.724;2023-03-12T08:07:54;100233.88;;;2.44;89.20
39265;BME280;42646;51.910;7.724;2023-03-12T08:10:22;100238.81;;;2.49;89.93
39265;BME280;42646;51.910;7.724;2023-03-12T08:12:51;100227.06;;;2.54;88.75
39265;BME280;42646;51.910;7.724;2023-03-12T08:15:26;100230.22;;;2.74;88.23
39265;BME280;42646;51.910;7.724;2023-03-12T08:17:55;100218.00;;;2.73;89.09
39265;BME280;42646;51.910;7.724;2023-03-12T08:20:27;100238.72;;;2.77;90.28
39265;BME280;42646;51.910;7.724;2023-03-12T08:22:54;100237.00;;;2.63;91.66
39265;BME280;42646;51.910;7.724;2023-03-12T08:25:22;100244.09;;;2.76;92.54
39265;BME280;42646;51.910;7.724;2023-03-12T08:27:50;100235.94;;;2.80;93.79
39265;BME280;42646;51.910;7.724;2023-03-12T08:30:19;100251.91;;;2.63;95.25
39265;BME280;42646;51.910;7.724;2023-03-12T08:32:48;100253.22;;;2.70;97.22
39265;BME280;42646;51.910;7.724;2023-03-12T08:35:17;100251.09;;;2.62;98.42
39265;BME280;42646;51.910;7.724;2023-03-12T08:37:47;100240.22;;;2.81;99.34
39265;BME280;42646;51.910;7.724;2023-03-12T08:40:15;100242.13;;;2.79;99.70
39265;BME280;42646;51.910;7.724;2023-03-12T08:43:11;100241.91;;;2.82;100.00
39265;BME280;42646;51.910;7.724;2023-03-12T08:46:04;100237.75;;;2.65;100.00
39265;BME280;42646;51.910;7.724;2023-03-12T08:48:34;100235.56;;;2.72;100.00
39265;BME280;42646;51.910;7.724;2023-03-12T08:51:03;100238.50;;;2.67;100.00
39265;BME280;42646;51.910;7.724;2023-03-12T08:53:32;100220.00;;;2.69;100.00
39265;BME280;42646;51.910;7.724;2023-03-12T08:56:01;100231.06;;;2.74;100.00
39265;BME280;42646;51.910;7.724;2023-03-12T08:58:29;100219.56;;;2.62;100.00
39265;BME280;42646;51.910;7.724;2023-03-12T09:00:57;100219.69;;;2.61;100.00
39265;BME280;42646;51.910;7.724;2023-03-12T09:03:29;100212.94;;;2.42;100.00
39265;BME280;42646;51.910;7.724;2023-03-12T09:06:03;100219.69;;;2.61;100.00
39265;BME280;42646;51.910;7.724;2023-03-12T09:08:56;100221.94;;;2.53;100.00
39265;BME280;42646;51.910;7.724;2023-03-12T09:11:31;100219.50;;;2.50;100.00
39265;BME280;42646;51.910;7.724;2023-03-12T09:13:58;100215.09;;;2.50;100.00
39265;BME280;42646;51.910;7.724;2023-03-12T09:16:46;100209.03;;;2.35;100.00
39265;BME280;42646;51.910;7.724;2023-03-12T09:19:14;100213.16;;;2.39;100.00
39265;BME280;42646;51.910;7.724;2023-03-12T09:21:44;100202.25;;;2.46;100.00
39265;BME280;42646;51.910;7.724;2023-03-12T09:24:11;100188.19;;;2.47;100.00
39265;BME280;42646;51.910;7.724;2023-03-12T09:26:39;100182.75;;;2.50;100.00
39265;BME280;42646;51.910;7.724;2023-03-12T09:29:07;100184.72;;;2.46;100.00
39265;BME280;42646;51.910;7.724;2023-03-12T09:31:38;100179.75;;;2.56;100.00
39265;BME280;42646;51.910;7.724;2023-03-12T09:34:06;100182.91;;;2.61;100.00
39265;BME280;42646;51.910;7.724;2023-03-12T09:36:34;100179.81;;;2.54;100.00
39265;BME280;42646;51.910;7.724;2023-03-12T09:39:03;100175.66;;;2.64;100.00
39265;BME280;42646;51.910;7.724;2023-03-12T09:41:34;100175.75;;;2.63;100.00
39265;BME280;42646;51.910;7.724;2023-03-12T09:44:12;100177.34;;;2.65;100.00
39265;BME280;42646;51.910;7.724;2023-03-12T09:46:43;100168.31;;;2.70;100.00
39265;BME280;42646;51.910;7.724;2023-03-12T09:49:18;100166.34;;;2.73;100.00
39265;BME280;42646;51.910;7.724;2023-03-12T09:51:52;100166.44;;;2.72;100.00
39265;BME280;42646;51.910;7.724;2023-03-12T09:54:28;100171.31;;;2.90;100.00
39265;BME280;42646;51.910;7.724;2023-03-12T09:57:08;100171.66;;;2.86;100.00
39265;BME280;42646;51.910;7.724;2023-03-12T09:59:37;100177.50;;;2.89;100.00
39265;BME280;42646;51.910;7.724;2023-03-12T10:02:24;100177.22;;;2.94;100.00
39265;BME280;42646;51.910;7.724;2023-03-12T10:04:57;100173.22;;;2.88;100.00
39265;BME280;42646;51.910;7.724;2023-03-12T10:07:34;100178.50;;;3.01;100.00
39265;BME280;42646;51.910;7.724;2023-03-12T10:10:35;100179.53;;;2.99;100.00
39265;BME280;42646;51.910;7.724;2023-03-12T10:13:14;100186.06;;;2.93;100.00
39265;BME280;42646;51.910;7.724;2023-03-12T10:15:59;100179.00;;;2.93;100.00
39265;BME280;42646;51.910;7.724;2023-03-12T10:18:41;100181.13;;;3.01;100.00
39265;BME280;42646;51.910;7.724;2023-03-12T10:21:21;100177.47;;;3.04;100.00
39265;BME280;42646;51.910;7.724;2023-03-12T10:24:03;100171.78;;;3.10;100.00
39265;BME280;42646;51.910;7.724;2023-03-12T10:27:08;100176.94;;;3.11;100.00
39265;BME280;42646;51.910;7.724;2023-03-12T10:29:40;100177.88;;;3.10;100.00
39265;BME280;42646;51.910;7.724;2023-03-12T10:32:13;100174.84;;;3.16;100.00
39265;BME280;42646;51.910;7.724;2023-03-12T10:34:43;100182.63;;;3.18;100.00
39265;BME280;42646;51.910;7.724;2023-03-12T10:37:16;100179.47;;;3.26;100.00
39265;BME280;42646;51.910;7.724;2023-03-12T10:39:45;100176.53;;;3.30;100.00
39265;BME280;42646;51.910;7.724;2023-03-12T10:42:17;100165.00;;;3.45;100.00
39265;BME280;42646;51.910;7.724;2023-03-12T10:44:45;100166.66;;;3.46;100.00
39265;BME280;42646;51.910;7.724;2023-03-12T10:47:27;100163.50;;;3.41;100.00
39265;BME280;42646;51.910;7.724;2023-03-12T10:50:11;100156.69;;;3.52;100.00
39265;BME280;42646;51.910;7.724;2023-03-12T10:52:39;100156.44;;;3.67;100.00
39265;BME280;42646;51.910;7.724;2023-03-12T10:55:15;100151.59;;;3.61;100.00
39265;BME280;42646;51.910;7.724;2023-03-12T10:57:48;100152.06;;;3.68;100.00
39265;BME280;42646;51.910;7.724;2023-03-12T11:00:21;100154.25;;;3.74;100.00
39265;BME280;42646;51.910;7.724;2023-03-12T11:02:57;100152.31;;;3.89;100.00
39265;BME280;42646;51.910;7.724;2023-03-12T11:05:28;100152.22;;;3.90;100.00
39265;BME280;42646;51.910;7.724;2023-03-12T11:07:57;100161.81;;;3.91;100.00
39265;BME280;42646;51.910;7.724;2023-03-12T11:10:39;100165.16;;;3.93;100.00
39265;BME280;42646;51.910;7.724;2023-03-12T11:13:28;100155.44;;;4.07;100.00
39265;BME280;42646;51.910;7.724;2023-03-12T11:15:59;100158.06;;;4.07;100.00
39265;BME280;42646;51.910;7.724;2023-03-12T11:18:30;100162.91;;;4.13;100.00
39265;BME280;42646;51.910;7.724;2023-03-12T11:21:16;100160.78;;;4.18;100.00
39265;BME280;42646;51.910;7.724;2023-03-12T11:24:06;100167.59;;;4.20;100.00
39265;BME280;42646;51.910;7.724;2023-03-12T11:26:38;100165.41;;;4.27;100.00
39265;BME280;42646;51.910;7.724;2023-03-12T11:29:17;100151.44;;;4.38;100.00
39265;BME280;42646;51.910;7.724;2023-03-12T11:31:56;100160.19;;;4.38;100.00
39265;BME280;42646;51.910;7.724;2023-03-12T11:34:27;100163.31;;;4.43;100.00
39265;BME280;42646;51.910;7.724;2023-03-12T11:37:04;100155.09;;;4.48;100.00
39265;BME280;42646;51.910;7.724;2023-03-12T11:39:44;100143.28;;;4.53;100.00
39265;BME280;42646;51.910;7.724;2023-03-12T11:42:26;100139.63;;;4.67;100.00
39265;BME280;42646;51.910;7.724;2023-03-12T11:45:05;100141.47;;;4.78;100.00
39265;BME280;42646;51.910;7.724;2023-03-12T11:47:47;100143.03;;;4.80;100.00
39265;BME280;42646;51.910;7.724;2023-03-12T11:50:27;100139.94;;;4.87;100.00
39265;BME280;42646;51.910;7.724;2023-03-12T11:53:13;100133.16;;;5.06;100.00
39265;BME280;42646;51.910;7.724;2023-03-12T11:55:55;100129.69;;;5.06;100.00
39265;BME280;42646;51.910;7.724;2023-03-12T11:58:42;100122.06;;;5.25;100.00
39265;BME280;42646;51.910;7.724;2023-03-12T12:01:20;100126.16;;;5.29;100.00
39265;BME280;42646;51.910;7.724;2023-03-12T12:04:06;100116.59;;;5.40;100.00
39265;BME280;42646;51.910;7.724;2023-03-12T12:06:48;100115.16;;;5.47;100.00
39265;BME280;42646;51.910;7.724;2023-03-12T12:09:27;100103.75;;;5.57;100.00
39265;BME280;42646;51.910;7.724;2023-03-12T12:12:10;100101.47;;;5.75;100.00
39265;BME280;42646;51.910;7.724;2023-03-12T12:14:55;100110.81;;;5.79;100.00
39265;BME280;42646;51.910;7.724;2023-03-12T12:17:37;100118.25;;;5.85;100.00
39265;BME280;42646;51.910;7.724;2023-03-12T12:20:20;100115.88;;;6.05;100.00
39265;BME280;42646;51.910;7.724;2023-03-12T12:25:55;100103.94;;;6.10;100.00
39265;BME280;42646;51.910;7.724;2023-03-12T12:28:46;100103.94;;;6.22;100.00
39265;BME280;42646;51.910;7.724;2023-03-12T12:31:29;100101.53;;;6.30;100.00
39265;BME280;42646;51.910;7.724;2023-03-12T12:34:22;100096.56;;;6.36;100.00
39265;BME280;42646;51.910;7.724;2023-03-12T12:37:12;100100.75;;;6.39;100.00
39265;BME280;42646;51.910;7.724;2023-03-12T12:39:45;100107.09;;;6.48;100.00
39265;BME280;42646;51.910;7.724;2023-03-12T12:42:20;100106.00;;;6.50;100.00
39265;BME280;42646;51.910;7.724;2023-03-12T12:44:52;100100.81;;;6.60;100.00
39265;BME280;42646;51.910;7.724;2023-03-12T12:47:33;100098.38;;;6.68;100.00
39265;BME280;42646;51.910;7.724;2023-03-12T12:50:04;100100.19;;;6.67;100.00
39265;BME280;42646;51.910;7.724;2023-03-12T12:52:32;100096.78;;;6.77;100.00
39265;BME280;42646;51.910;7.724;2023-03-12T12:55:06;100096.72;;;6.88;100.00
39265;BME280;42646;51.910;7.724;2023-03-12T12:57:41;100091.31;;;6.89;100.00
39265;BME280;42646;51.910;7.724;2023-03-12T13:00:22;100089.69;;;6.98;100.00
39265;BME280;42646;51.910;7.724;2023-03-12T13:02:54;100089.28;;;7.03;100.00
39265;BME280;42646;51.910;7.724;2023-03-12T13:05:27;100089.16;;;7.04;100.00
39265;BME280;42646;51.910;7.724;2023-03-12T13:07:58;100078.19;;;7.09;100.00
39265;BME280;42646;51.910;7.724;2023-03-12T13:10:47;100076.31;;;7.20;100.00
39265;BME280;42646;51.910;7.724;2023-03-12T13:13:28;100077.59;;;7.26;100.00
39265;BME280;42646;51.910;7.724;2023-03-12T13:16:17;100089.03;;;7.27;100.00
39265;BME280;42646;51.910;7.724;2023-03-12T13:18:55;100090.56;;;7.29;100.00
39265;BME280;42646;51.910;7.724;2023-03-12T13:21:29;100084.31;;;7.30;100.00
39265;BME280;42646;51.910;7.724;2023-03-12T13:24:11;100082.94;;;7.36;100.00